Time;durP1;ratioP1;P1;durP2;ratioP2;P2;SDS_P1;SDS_P2;PMS_P1;PMS_P2;Temp;Humidity;BMP_temperature;BMP_pressure;BME280_temperature;BME280_humidity;BME280_pressure;Samples;Min_cycle;Max_cycle;Signal;HPM_P1;HPM_P2
2022/04/16 00:02:01;;;;;;;10.93;7.23;;;9.40;99.90;;;;;;5037106;28;20430;-80
2022/04/16 00:04:28;;;;;;;8.70;6.83;;;9.30;99.90;;;;;;5037441;28;20793;-78
2022/04/16 00:06:54;;;;;;;11.23;7.27;;;9.30;99.90;;;;;;5036151;28;20430;-79
2022/04/16 00:09:20;;;;;;;8.97;6.80;;;9.30;99.90;;;;;;5036960;28;20441;-78
2022/04/16 00:11:45;;;;;;;8.93;6.80;;;9.30;99.90;;;;;;5037068;28;20928;-79
2022/04/16 00:14:12;;;;;;;9.47;6.70;;;9.30;99.90;;;;;;5054696;28;20259;-78
2022/04/16 00:16:38;;;;;;;11.43;7.53;;;9.20;99.90;;;;;;5035438;28;20216;-80
2022/04/16 00:19:04;;;;;;;10.53;6.80;;;9.20;99.90;;;;;;5055040;28;20391;-80
2022/04/16 00:21:30;;;;;;;12.27;8.37;;;9.20;99.90;;;;;;5036571;28;20469;-79
2022/04/16 00:23:57;;;;;;;10.73;6.80;;;9.20;99.90;;;;;;5036544;28;20683;-79
2022/04/16 00:26:23;;;;;;;13.20;7.43;;;9.20;99.90;;;;;;5053812;28;20438;-79
2022/04/16 00:28:52;;;;;;;13.60;7.60;;;9.10;99.90;;;;;;5035977;28;20414;-77
2022/04/16 00:31:17;;;;;;;10.33;6.77;;;9.10;99.90;;;;;;5054198;28;20414;-79
2022/04/16 00:33:45;;;;;;;10.53;7.50;;;9.00;99.90;;;;;;5054006;28;20414;-79
2022/04/16 00:36:11;;;;;;;8.50;6.60;;;9.00;99.90;;;;;;5053382;28;20176;-79
2022/04/16 00:38:36;;;;;;;11.53;7.80;;;8.90;99.90;;;;;;5035335;28;20510;-79
2022/04/16 00:41:02;;;;;;;10.80;7.43;;;8.90;99.90;;;;;;5054250;28;20172;-79
2022/04/16 00:43:29;;;;;;;9.57;6.60;;;8.90;99.90;;;;;;5053594;28;20176;-79
2022/04/16 00:45:57;;;;;;;12.20;8.30;;;8.80;99.90;;;;;;5036188;28;20591;-80
2022/04/16 00:48:23;;;;;;;10.97;7.13;;;8.80;99.90;;;;;;5052652;28;20438;-78
2022/04/16 00:50:55;;;;;;;10.60;6.83;;;8.80;99.90;;;;;;5036005;28;20873;-79
2022/04/16 00:53:25;;;;;;;9.90;6.20;;;8.80;99.90;;;;;;5035772;28;20501;-78
2022/04/16 00:55:51;;;;;;;12.53;7.63;;;8.80;99.90;;;;;;5035920;28;20429;-78
2022/04/16 00:58:17;;;;;;;10.97;8.23;;;8.80;99.90;;;;;;5035204;28;21012;-79
2022/04/16 01:00:42;;;;;;;10.07;7.03;;;8.80;99.90;;;;;;5035555;28;20421;-79
2022/04/16 01:03:08;;;;;;;11.27;7.30;;;8.80;99.90;;;;;;5036014;28;20668;-79
2022/04/16 01:05:35;;;;;;;9.37;6.97;;;8.80;99.90;;;;;;5036385;28;20551;-79
2022/04/16 01:08:02;;;;;;;12.57;8.07;;;8.70;99.90;;;;;;5035780;28;20977;-80
2022/04/16 01:10:29;;;;;;;12.07;7.27;;;8.70;99.90;;;;;;5036918;28;20956;-79
2022/04/16 01:13:00;;;;;;;11.27;7.93;;;8.60;99.90;;;;;;5036975;28;20429;-79
2022/04/16 01:15:28;;;;;;;10.17;7.87;;;8.50;99.90;;;;;;5054685;28;20505;-79
2022/04/16 01:17:54;;;;;;;11.60;7.47;;;8.60;99.90;;;;;;5053929;28;20523;-79
2022/04/16 01:20:20;;;;;;;9.67;7.37;;;8.60;99.90;;;;;;5040908;28;20422;-79
2022/04/16 01:22:48;;;;;;;11.60;7.87;;;8.60;99.90;;;;;;5058200;28;20414;-80
2022/04/16 01:25:14;;;;;;;10.83;7.67;;;8.60;99.90;;;;;;5058730;28;20172;-80
2022/04/16 01:27:43;;;;;;;10.23;7.77;;;8.60;99.90;;;;;;5040019;28;20477;-79
2022/04/16 01:30:13;;;;;;;9.57;7.20;;;8.50;99.90;;;;;;5040464;28;20428;-79
2022/04/16 01:32:40;;;;;;;9.80;7.50;;;8.40;99.90;;;;;;5040053;28;20430;-78
2022/04/16 01:35:07;;;;;;;9.70;8.23;;;8.40;99.90;;;;;;5040351;28;20425;-80
2022/04/16 01:37:37;;;;;;;10.00;7.43;;;8.40;99.90;;;;;;5039822;28;21023;-80
2022/04/16 01:40:06;;;;;;;10.80;7.97;;;8.40;99.90;;;;;;5040337;28;20402;-79
2022/04/16 01:42:32;;;;;;;10.37;8.40;;;8.30;99.90;;;;;;5040342;28;20471;-78
2022/04/16 01:45:11;;;;;;;11.07;7.13;;;8.30;99.90;;;;;;5040094;28;20441;-79
2022/04/16 01:47:38;;;;;;;11.03;7.73;;;8.30;99.90;;;;;;5039205;28;20217;-80
2022/04/16 01:50:09;;;;;;;12.07;8.10;;;8.30;99.90;;;;;;5039709;28;20511;-78
2022/04/16 01:52:36;;;;;;;10.23;7.87;;;8.30;99.90;;;;;;5057992;28;20394;-79
2022/04/16 01:55:02;;;;;;;12.67;8.43;;;8.30;99.90;;;;;;5040030;28;20419;-79
2022/04/16 01:57:27;;;;;;;12.60;7.80;;;8.30;99.90;;;;;;5038727;28;20468;-80
2022/04/16 01:59:53;;;;;;;11.33;7.40;;;8.30;99.90;;;;;;5038085;28;20846;-78
2022/04/16 02:02:19;;;;;;;13.27;8.03;;;8.20;99.90;;;;;;5038343;28;20222;-78
2022/04/16 02:04:45;;;;;;;12.43;7.77;;;8.20;99.90;;;;;;5038240;28;20406;-78
2022/04/16 02:07:11;;;;;;;12.83;8.53;;;8.20;99.90;;;;;;5037054;28;20288;-78
2022/04/16 02:09:37;;;;;;;14.43;8.70;;;8.10;99.90;;;;;;5055699;28;20418;-79
2022/04/16 02:12:03;;;;;;;12.23;7.87;;;8.20;99.90;;;;;;5055886;28;20179;-78
2022/04/16 02:14:29;;;;;;;10.97;7.93;;;8.10;99.90;;;;;;5037883;28;20418;-79
2022/04/16 02:16:54;;;;;;;10.70;7.97;;;8.10;99.90;;;;;;5036894;28;20901;-79
2022/04/16 02:19:20;;;;;;;11.50;7.90;;;8.10;99.90;;;;;;5037845;28;20179;-78
2022/04/16 02:21:47;;;;;;;10.53;7.80;;;8.10;99.90;;;;;;5055244;28;20180;-79
2022/04/16 02:24:13;;;;;;;15.83;8.50;;;8.00;99.90;;;;;;5055742;28;20899;-78
2022/04/16 02:26:42;;;;;;;14.50;9.40;;;8.00;99.90;;;;;;5036558;28;20465;-78
2022/04/16 02:29:08;;;;;;;11.37;8.57;;;8.00;99.90;;;;;;5037403;28;20508;-80
2022/04/16 02:31:37;;;;;;;11.90;8.30;;;8.00;99.90;;;;;;5054546;28;20464;-79
2022/04/16 02:34:05;;;;;;;14.17;8.20;;;7.90;99.90;;;;;;5037640;28;20956;-79
2022/04/16 02:36:31;;;;;;;14.00;8.93;;;7.90;99.90;;;;;;5036224;28;20477;-78
2022/04/16 02:38:57;;;;;;;12.07;7.47;;;7.90;99.90;;;;;;5037208;28;20415;-79
2022/04/16 02:41:23;;;;;;;12.10;8.60;;;7.80;99.90;;;;;;5036771;28;20427;-79
2022/04/16 02:43:49;;;;;;;14.07;8.30;;;7.80;99.90;;;;;;5036921;28;20414;-78
2022/04/16 02:49:00;;;;;;;13.67;8.73;;;7.70;99.90;;;;;;5054517;28;20254;-80
2022/04/16 02:51:26;;;;;;;10.73;8.30;;;;;;;;;;5036831;28;20458;-78
2022/04/16 02:53:52;;;;;;;14.17;8.23;;;7.70;99.90;;;;;;5036711;28;20423;-78
2022/04/16 02:56:18;;;;;;;13.20;8.53;;;7.70;99.90;;;;;;5054559;28;20421;-79
2022/04/16 02:58:43;;;;;;;12.97;7.93;;;7.70;99.90;;;;;;5036317;28;20579;-79
2022/04/16 03:01:09;;;;;;;14.67;9.60;;;7.60;99.90;;;;;;5036346;28;20175;-78
2022/04/16 03:03:34;;;;;;;13.70;8.87;;;7.60;99.90;;;;;;5036547;28;20214;-78
2022/04/16 03:06:00;;;;;;;11.10;8.03;;;7.60;99.90;;;;;;5036266;28;20226;-81
2022/04/16 03:08:25;;;;;;;12.90;7.80;;;7.60;99.90;;;;;;5035584;28;20306;-79
2022/04/16 03:10:52;;;;;;;12.30;8.43;;;7.60;99.90;;;;;;5054118;28;20179;-81
2022/04/16 03:13:19;;;;;;;10.73;7.70;;;7.50;99.90;;;;;;5036183;28;20233;-78
2022/04/16 03:18:29;;;;;;;11.23;7.67;;;7.40;99.90;;;;;;5061023;22;21152;-84
2022/04/16 03:20:57;;;;;;;15.07;9.20;;;7.40;99.90;;;;;;5052332;28;20436;-84
2022/04/16 03:23:23;;;;;;;12.50;9.23;;;7.40;99.90;;;;;;5052267;28;20923;-83
2022/04/16 03:25:48;;;;;;;10.20;7.33;;;7.30;99.90;;;;;;5053431;28;20400;-84
2022/04/16 03:28:15;;;;;;;11.93;7.33;;;7.20;99.90;;;;;;5051654;28;20203;-84
2022/04/16 03:30:41;;;;;;;13.00;8.60;;;7.10;99.90;;;;;;5035520;28;20659;-84
2022/04/16 03:33:08;;;;;;;12.90;8.40;;;7.10;99.90;;;;;;5035512;28;20919;-84
2022/04/16 03:35:35;;;;;;;14.70;9.10;;;7.10;99.90;;;;;;5035256;28;20416;-84
2022/04/16 03:38:00;;;;;;;13.23;8.47;;;7.20;99.90;;;;;;5052558;28;20469;-84
2022/04/16 03:40:27;;;;;;;13.83;8.20;;;7.20;99.90;;;;;;5035156;28;20546;-84
2022/04/16 03:42:56;;;;;;;14.23;9.37;;;7.20;99.90;;;;;;5034411;28;20210;-84
2022/04/16 03:45:23;;;;;;;10.30;6.77;;;7.10;99.90;;;;;;5035188;28;20960;-84
2022/04/16 03:47:50;;;;;;;12.27;8.60;;;7.10;99.90;;;;;;5034437;28;20445;-83
2022/04/16 03:50:17;;;;;;;10.03;7.27;;;7.10;99.90;;;;;;5035145;28;20419;-84
2022/04/16 03:52:44;;;;;;;9.50;7.20;;;7.10;99.90;;;;;;5034882;28;20451;-83
2022/04/16 04:00:46;;;;;;;16.77;8.90;;;6.90;99.90;;;;;;5053172;28;20554;-83
2022/04/16 04:03:20;;;;;;;10.10;7.30;;;6.90;99.90;;;;;;5178977;27;20323;-79
2022/04/16 04:05:49;;;;;;;12.20;6.73;;;6.90;99.90;;;;;;5154287;27;20437;-79
2022/04/16 04:08:16;;;;;;;14.10;7.80;;;6.90;99.90;;;;;;5136720;27;20414;-79
2022/04/16 04:10:42;;;;;;;12.07;8.70;;;6.80;99.90;;;;;;5137211;27;20451;-79
2022/04/16 04:13:08;;;;;;;11.60;7.43;;;6.80;99.90;;;;;;5136799;27;20413;-79
2022/04/16 04:15:35;;;;;;;12.43;8.43;;;6.70;99.90;;;;;;5137461;27;20435;-79
2022/04/16 04:18:02;;;;;;;10.73;6.93;;;6.80;99.90;;;;;;5136788;27;20412;-79
2022/04/16 04:20:29;;;;;;;13.57;8.27;;;6.70;99.90;;;;;;5129727;27;20436;-79
2022/04/16 04:22:55;;;;;;;10.77;7.33;;;6.70;99.90;;;;;;5136427;27;20452;-79
2022/04/16 04:25:21;;;;;;;14.27;8.43;;;6.70;99.90;;;;;;5136420;27;20475;-79
2022/04/16 04:27:47;;;;;;;11.87;8.20;;;6.70;99.90;;;;;;5136203;27;20797;-79
2022/04/16 04:30:13;;;;;;;9.87;7.50;;;6.60;99.90;;;;;;5136424;27;20417;-79
2022/04/16 04:32:39;;;;;;;16.40;7.37;;;6.60;99.90;;;;;;5135919;27;20471;-78
2022/04/16 04:35:06;;;;;;;15.87;9.33;;;6.50;99.90;;;;;;5131837;27;20415;-79
2022/04/16 04:37:32;;;;;;;12.10;7.53;;;6.60;99.90;;;;;;5126060;27;20430;-79
2022/04/16 04:39:58;;;;;;;14.00;8.53;;;6.50;99.90;;;;;;5135177;27;20413;-79
2022/04/16 04:42:31;;;;;;;13.20;8.73;;;6.40;99.90;;;;;;5135352;27;20476;-79
2022/04/16 04:44:57;;;;;;;13.10;7.77;;;6.40;99.90;;;;;;5135928;27;20185;-78
2022/04/16 04:47:23;;;;;;;13.50;7.87;;;6.40;99.90;;;;;;5133969;27;20445;-79
2022/04/16 04:49:49;;;;;;;12.03;8.17;;;6.40;99.90;;;;;;5135232;27;20410;-79
2022/04/16 04:52:26;;;;;;;12.03;8.93;;;6.40;99.90;;;;;;5135563;27;20476;-79
2022/04/16 04:54:55;;;;;;;15.60;9.13;;;6.40;99.90;;;;;;5132797;27;20427;-78
2022/04/16 04:57:21;;;;;;;16.83;9.90;;;6.30;99.90;;;;;;5131403;27;20443;-78
2022/04/16 04:59:47;;;;;;;13.60;9.13;;;6.30;99.90;;;;;;5131878;27;20837;-78
2022/04/16 05:02:12;;;;;;;15.47;8.60;;;6.40;99.90;;;;;;5131261;27;20233;-78
2022/04/16 05:04:38;;;;;;;11.60;8.07;;;6.40;99.90;;;;;;5131733;27;20182;-78
2022/04/16 05:07:05;;;;;;;10.87;7.77;;;6.50;99.90;;;;;;5131592;27;20288;-78
2022/04/16 05:09:31;;;;;;;11.70;8.70;;;6.50;99.90;;;;;;5131774;27;20599;-78
2022/04/16 05:11:57;;;;;;;13.07;8.00;;;6.60;99.90;;;;;;5136376;27;20417;-79
2022/04/16 05:14:23;;;;;;;15.77;9.47;;;6.60;99.90;;;;;;5125167;27;20419;-78
2022/04/16 05:16:50;;;;;;;14.77;10.10;;;6.70;99.90;;;;;;5123196;27;20840;-79
2022/04/16 05:19:16;;;;;;;12.10;8.90;;;6.70;99.90;;;;;;5123418;27;20427;-79
2022/04/16 05:21:42;;;;;;;12.93;9.30;;;6.70;99.90;;;;;;5122989;27;20457;-79
2022/04/16 05:24:09;;;;;;;13.90;9.60;;;6.80;99.90;;;;;;5123455;27;20415;-79
2022/04/16 05:26:37;;;;;;;13.40;8.73;;;6.90;99.90;;;;;;5117925;27;20444;-78
2022/04/16 05:29:03;;;;;;;15.80;10.17;;;6.90;99.90;;;;;;5109261;27;20438;-78
2022/04/16 05:31:30;;;;;;;11.00;7.90;;;7.00;99.90;;;;;;5117274;27;20445;-78
2022/04/16 05:36:42;;;;;;;14.70;8.90;;;7.00;99.90;;;;;;5136519;27;20497;-78
2022/04/16 05:39:08;;;;;;;15.27;9.63;;;7.20;99.90;;;;;;5117319;27;20434;-78
2022/04/16 05:41:34;;;;;;;12.80;9.30;;;7.20;99.90;;;;;;5117229;27;20507;-78
2022/04/16 05:44:00;;;;;;;15.10;9.60;;;7.30;99.90;;;;;;5113754;28;20426;-78
2022/04/16 05:46:26;;;;;;;19.20;9.50;;;7.30;99.90;;;;;;5106814;27;20204;-78
2022/04/16 05:48:52;;;;;;;16.00;10.40;;;7.40;99.90;;;;;;5116816;27;20991;-79
2022/04/16 05:51:19;;;;;;;13.87;8.70;;;7.50;99.90;;;;;;5116930;27;20181;-78
2022/04/16 05:53:47;;;;;;;16.47;9.50;;;7.60;99.90;;;;;;5135433;27;20272;-78
2022/04/16 05:56:13;;;;;;;14.50;8.97;;;7.70;99.90;;;;;;5116793;27;20442;-78
2022/04/16 05:58:39;;;;;;;16.07;10.17;;;7.80;99.90;;;;;;5116830;27;20432;-79
2022/04/16 06:01:07;;;;;;;15.60;10.67;;;7.80;99.90;;;;;;5116465;27;20423;-78
2022/04/16 06:03:36;;;;;;;19.10;10.70;;;7.90;99.90;;;;;;5116839;27;20834;-79
2022/04/16 06:06:03;;;;;;;16.27;10.93;;;8.00;99.90;;;;;;5116543;27;20438;-78
2022/04/16 06:08:29;;;;;;;20.57;11.10;;;8.10;99.90;;;;;;5116858;27;20411;-78
2022/04/16 06:10:54;;;;;;;17.20;10.20;;;8.10;99.90;;;;;;5116601;27;20985;-78
2022/04/16 06:13:20;;;;;;;15.23;11.37;;;8.20;99.90;;;;;;5116802;27;20558;-78
2022/04/16 06:15:46;;;;;;;16.30;10.37;;;8.30;99.90;;;;;;5116321;27;20330;-78
2022/04/16 06:18:12;;;;;;;18.40;11.57;;;8.50;99.90;;;;;;5116296;27;20414;-78
2022/04/16 06:20:38;;;;;;;19.40;10.40;;;8.70;99.90;;;;;;5116410;27;20187;-78
2022/04/16 06:23:05;;;;;;;14.70;11.00;;;8.70;99.90;;;;;;5116325;27;20250;-78
2022/04/16 06:25:31;;;;;;;16.90;9.87;;;8.80;99.90;;;;;;5115024;27;20427;-78
2022/04/16 06:27:57;;;;;;;16.57;10.80;;;9.00;99.90;;;;;;5116074;27;20438;-79
2022/04/16 06:30:23;;;;;;;18.63;10.67;;;9.10;99.90;;;;;;5116144;27;20456;-78
2022/04/16 06:32:49;;;;;;;14.57;9.50;;;9.20;99.90;;;;;;5116092;27;20204;-78
2022/04/16 06:35:14;;;;;;;14.97;10.30;;;9.40;99.90;;;;;;5116085;27;20185;-79
2022/04/16 06:37:41;;;;;;;15.97;9.70;;;9.50;99.90;;;;;;5115997;27;20181;-78
2022/04/16 06:40:08;;;;;;;15.83;9.97;;;9.70;99.90;;;;;;5116012;27;20265;-78
2022/04/16 06:42:35;;;;;;;16.57;9.33;;;9.70;99.90;;;;;;5116080;27;20459;-79
2022/04/16 06:45:01;;;;;;;15.47;9.27;;;10.00;99.90;;;;;;5116118;27;20792;-78
2022/04/16 06:47:29;;;;;;;16.53;10.83;;;10.10;99.90;;;;;;5115697;27;20432;-79
2022/04/16 06:49:55;;;;;;;14.20;10.23;;;10.30;99.90;;;;;;5116305;27;20418;-79
2022/04/16 06:52:21;;;;;;;21.07;9.80;;;10.40;99.90;;;;;;5116108;27;20430;-76
2022/04/16 06:54:47;;;;;;;18.30;11.80;;;10.60;99.90;;;;;;5115268;27;20915;-76
2022/04/16 06:57:14;;;;;;;15.73;8.80;;;10.80;99.90;;;;;;5115059;27;20201;-77
2022/04/16 06:59:40;;;;;;;15.83;9.30;;;11.00;99.90;;;;;;5115178;27;20426;-76
2022/04/16 07:02:07;;;;;;;16.60;9.90;;;11.00;99.90;;;;;;5115019;27;20474;-76
2022/04/16 07:04:33;;;;;;;14.67;9.20;;;11.20;99.90;;;;;;5115184;27;20414;-76
2022/04/16 07:06:59;;;;;;;16.70;9.77;;;11.30;99.90;;;;;;5114895;27;20445;-76
2022/04/16 07:09:26;;;;;;;14.07;9.10;;;11.40;99.90;;;;;;5115145;27;20788;-76
2022/04/16 07:11:51;;;;;;;17.80;9.70;;;11.50;99.90;;;;;;5115089;27;20490;-76
2022/04/16 07:14:17;;;;;;;11.90;8.83;;;11.60;99.90;;;;;;5114758;27;20414;-76
2022/04/16 07:16:43;;;;;;;12.80;8.87;;;11.80;99.90;;;;;;5114547;27;20306;-76
2022/04/16 07:19:09;;;;;;;12.83;8.50;;;11.90;99.90;;;;;;5115180;27;20180;-75
2022/04/16 07:21:35;;;;;;;13.63;8.70;;;12.00;99.90;;;;;;5114682;27;20458;-75
2022/04/16 07:24:01;;;;;;;14.33;8.67;;;12.00;99.90;;;;;;5114838;27;20407;-76
2022/04/16 07:26:27;;;;;;;14.10;9.33;;;12.00;99.90;;;;;;5114316;27;20430;-76
2022/04/16 07:28:53;;;;;;;15.33;10.10;;;12.10;99.90;;;;;;5114789;27;20169;-76
2022/04/16 07:31:18;;;;;;;15.40;9.17;;;12.20;99.90;;;;;;5114552;27;20604;-76
2022/04/16 07:33:44;;;;;;;14.80;8.60;;;12.30;99.90;;;;;;5114690;27;20181;-76
2022/04/16 07:36:10;;;;;;;13.13;8.93;;;12.40;99.90;;;;;;5114282;27;20566;-76
2022/04/16 07:38:36;;;;;;;13.83;8.10;;;12.50;99.90;;;;;;5114548;27;20449;-75
2022/04/16 07:41:05;;;;;;;14.40;9.60;;;12.60;99.90;;;;;;5114422;27;20184;-76
2022/04/16 07:43:32;;;;;;;14.03;9.27;;;12.70;99.90;;;;;;5114469;28;20216;-77
2022/04/16 07:45:58;;;;;;;12.27;8.23;;;12.80;99.90;;;;;;5114466;27;20525;-76
2022/04/16 07:48:24;;;;;;;11.90;7.27;;;13.00;99.90;;;;;;5114488;27;20534;-76
2022/04/16 07:50:50;;;;;;;12.97;8.70;;;13.10;99.90;;;;;;5114479;27;20185;-76
2022/04/16 07:53:16;;;;;;;12.30;9.80;;;13.20;99.90;;;;;;5114341;27;20561;-76
2022/04/16 07:55:42;;;;;;;13.53;8.50;;;13.30;99.90;;;;;;5114195;27;20430;-76
2022/04/16 07:58:08;;;;;;;12.37;9.13;;;13.40;99.90;;;;;;5114410;28;20190;-76
2022/04/16 08:00:33;;;;;;;12.80;8.87;;;13.50;99.90;;;;;;5114300;28;20173;-76
2022/04/16 08:02:59;;;;;;;12.33;8.03;;;13.70;99.90;;;;;;5114203;28;20209;-76
2022/04/16 08:05:25;;;;;;;10.30;7.80;;;13.80;99.90;;;;;;5114226;28;20197;-77
2022/04/16 08:07:51;;;;;;;11.57;8.30;;;13.90;99.90;;;;;;5114194;28;20648;-76
2022/04/16 08:10:17;;;;;;;12.50;8.27;;;13.90;99.90;;;;;;5114750;28;20177;-76
2022/04/16 08:12:42;;;;;;;14.83;8.70;;;14.00;99.90;;;;;;5113106;28;20703;-77
2022/04/16 08:15:11;;;;;;;11.60;8.57;;;14.20;99.90;;;;;;5113299;28;20188;-77
2022/04/16 08:17:37;;;;;;;10.90;7.27;;;14.30;99.90;;;;;;5114080;28;20177;-77
2022/04/16 08:20:05;;;;;;;12.50;7.70;;;14.40;99.90;;;;;;5114177;28;20768;-77
2022/04/16 08:22:34;;;;;;;10.53;7.80;;;14.50;99.90;;;;;;5114171;28;20972;-76
2022/04/16 08:27:49;;;;;;;9.37;6.10;;;14.70;99.90;;;;;;5122184;28;20802;-75
2022/04/16 08:30:16;;;;;;;10.03;6.40;;;14.60;99.90;;;;;;5113680;28;20956;-76
2022/04/16 08:32:43;;;;;;;8.60;6.50;;;14.90;99.90;;;;;;5111505;28;20445;-76
2022/04/16 08:35:14;;;;;;;10.33;7.20;;;15.10;99.90;;;;;;5113304;28;20828;-75
2022/04/16 08:37:40;;;;;;;11.17;8.33;;;15.30;99.90;;;;;;5105735;28;20418;-76
2022/04/16 08:40:07;;;;;;;10.63;6.23;;;15.80;99.90;;;;;;5113379;28;20425;-76
2022/04/16 08:42:34;;;;;;;11.30;6.93;;;17.00;99.90;;;;;;5113653;28;20496;-75
2022/04/16 08:45:01;;;;;;;9.10;6.00;;;18.20;99.90;;;;;;5113937;28;20913;-75
2022/04/16 08:47:27;;;;;;;10.67;7.00;;;18.70;99.90;;;;;;5113376;27;21043;-75
2022/04/16 08:49:53;;;;;;;9.70;6.60;;;20.50;99.90;;;;;;5117195;27;20502;-75
2022/04/16 08:52:22;;;;;;;6.90;5.53;;;20.90;99.90;;;;;;5112030;27;20177;-75
2022/04/16 08:54:48;;;;;;;9.83;6.10;;;20.00;99.90;;;;;;5117275;27;20415;-76
2022/04/16 08:57:14;;;;;;;8.73;5.70;;;19.20;99.90;;;;;;5116943;27;21097;-75
2022/04/16 08:59:47;;;;;;;8.20;5.73;;;18.70;99.90;;;;;;5116054;27;20655;-76
2022/04/16 09:02:13;;;;;;;8.80;6.10;;;19.30;99.90;;;;;;5117409;27;20245;-75
2022/04/16 09:04:39;;;;;;;8.57;5.83;;;19.10;99.90;;;;;;5117381;27;20523;-75
2022/04/16 09:07:05;;;;;;;7.10;4.87;;;18.60;99.90;;;;;;5135213;27;20735;-75
2022/04/16 09:09:31;;;;;;;7.70;5.50;;;18.20;99.90;;;;;;5117223;27;20421;-75
2022/04/16 09:11:56;;;;;;;8.13;5.07;;;18.20;99.90;;;;;;5117083;27;20181;-76
2022/04/16 09:14:36;;;;;;;7.27;5.23;;;19.10;99.90;;;;;;5113222;27;20188;-75
2022/04/16 09:17:06;;;;;;;6.70;4.70;;;18.90;99.90;;;;;;5116855;27;20225;-76
2022/04/16 09:19:32;;;;;;;8.27;5.43;;;18.90;99.90;;;;;;5117008;27;20485;-76
2022/04/16 09:21:58;;;;;;;7.50;4.70;;;18.70;99.90;;;;;;5116867;27;20464;-75
2022/04/16 09:24:24;;;;;;;9.00;4.90;;;18.50;99.90;;;;;;5116654;27;20209;-76
2022/04/16 09:26:50;;;;;;;7.87;4.73;;;18.40;99.90;;;;;;5116486;27;20188;-76
2022/04/16 09:29:16;;;;;;;5.67;4.30;;;18.30;99.90;;;;;;5116898;27;20173;-76
2022/04/16 09:31:51;;;;;;;6.00;4.53;;;18.30;99.90;;;;;;5115867;27;20418;-76
2022/04/16 09:34:19;;;;;;;8.03;4.90;;;18.40;99.90;;;;;;5112294;28;20476;-76
2022/04/16 09:36:46;;;;;;;8.80;5.50;;;19.00;99.90;;;;;;5096082;28;20453;-76
2022/04/16 09:39:12;;;;;;;7.00;4.57;;;19.70;99.90;;;;;;5124556;22;20497;-80
2022/04/16 09:41:44;;;;;;;8.07;4.70;;;19.20;99.50;;;;;;5111351;28;20495;-81
2022/04/16 09:44:18;;;;;;;5.77;4.00;;;19.10;99.90;;;;;;5077337;28;20926;-83
2022/04/16 09:46:48;;;;;;;5.57;3.70;;;21.50;95.10;;;;;;5092749;28;20446;-81
2022/04/16 09:49:14;;;;;;;5.20;3.97;;;21.80;92.10;;;;;;5094529;28;20535;-81
2022/04/16 09:51:45;;;;;;;5.63;3.30;;;21.70;91.00;;;;;;5094926;28;20412;-81
2022/04/16 09:54:11;;;;;;;5.10;4.03;;;24.10;83.10;;;;;;5094286;28;20412;-81
2022/04/16 09:56:40;;;;;;;4.30;2.90;;;26.50;66.20;;;;;;5075545;28;20918;-81
2022/04/16 09:59:08;;;;;;;4.60;3.17;;;28.50;55.60;;;;;;5075955;28;20806;-82
2022/04/16 10:01:35;;;;;;;5.27;3.40;;;30.30;50.10;;;;;;5076261;28;20488;-82
2022/04/16 10:04:01;;;;;;;5.40;3.47;;;31.90;45.70;;;;;;5075990;28;20448;-82
2022/04/16 10:06:31;;;;;;;4.10;3.23;;;33.40;41.30;;;;;;5075349;28;20413;-82
2022/04/16 10:09:01;;;;;;;4.50;2.90;;;34.20;37.80;;;;;;5093959;28;20813;-83
2022/04/16 10:12:59;;;;;;;3.60;2.70;;;34.50;35.00;;;;;;5094063;28;20440;-82
2022/04/16 10:14:37;;;;;;;4.47;3.30;;;35.20;34.90;;;;;;5093879;28;20420;-82
2022/04/16 10:17:21;;;;;;;4.00;2.43;;;35.80;31.10;;;;;;5093426;28;20389;-82
2022/04/16 10:19:48;;;;;;;3.50;2.03;;;35.80;30.10;;;;;;5075870;28;20833;-82
2022/04/16 10:22:27;;;;;;;3.10;2.07;;;35.80;29.30;;;;;;5092695;28;20416;-82
2022/04/16 10:24:57;;;;;;;3.27;1.93;;;36.10;29.30;;;;;;5093859;28;20416;-82
2022/04/16 10:27:30;;;;;;;3.07;2.20;;;36.20;27.50;;;;;;5091659;28;20420;-82
2022/04/16 10:30:00;;;;;;;3.33;1.93;;;36.90;28.90;;;;;;5093652;28;20408;-82
2022/04/16 10:32:39;;;;;;;3.43;2.37;;;37.10;29.40;;;;;;5093739;28;20470;-82
2022/04/16 10:35:05;;;;;;;3.00;2.20;;;37.80;28.20;;;;;;5093709;28;20401;-82
2022/04/16 10:37:41;;;;;;;3.97;2.70;;;39.00;28.80;;;;;;5092904;28;20444;-83
2022/04/16 10:40:25;;;;;;;3.00;2.03;;;39.50;27.10;;;;;;5092272;28;20419;-83
2022/04/16 10:42:58;;;;;;;3.50;1.87;;;39.80;26.00;;;;;;5093589;28;20978;-82
2022/04/16 10:45:24;;;;;;;3.10;1.90;;;40.90;26.30;;;;;;5092184;28;20466;-82
2022/04/16 10:47:51;;;;;;;2.50;1.80;;;40.40;25.70;;;;;;5092612;28;20468;-82
2022/04/16 10:50:20;;;;;;;3.03;1.90;;;40.70;26.00;;;;;;5093440;28;20242;-83
2022/04/16 10:53:00;;;;;;;3.40;1.93;;;40.90;26.20;;;;;;5092578;28;20574;-81
2022/04/16 10:55:30;;;;;;;2.93;1.60;;;40.90;25.20;;;;;;5093946;28;20800;-82
2022/04/16 10:58:06;;;;;;;3.53;2.10;;;39.60;24.10;;;;;;5091274;28;20474;-81
2022/04/16 11:00:46;;;;;;;3.80;1.70;;;36.90;24.80;;;;;;5090124;28;20876;-83
2022/04/16 11:03:30;;;;;;;2.47;1.57;;;36.10;26.30;;;;;;5074681;28;20927;-83
2022/04/16 11:06:07;;;;;;;2.80;1.73;;;36.30;26.80;;;;;;5092611;28;20415;-83
2022/04/16 11:08:38;;;;;;;3.73;1.70;;;36.00;25.90;;;;;;5091850;28;20459;-84
2022/04/16 11:11:04;;;;;;;2.43;1.50;;;35.80;27.10;;;;;;5068852;28;20451;-83
2022/04/16 11:13:31;;;;;;;2.83;1.60;;;35.30;26.40;;;;;;5081641;28;20427;-83
2022/04/16 11:15:58;;;;;;;2.60;1.50;;;35.40;26.80;;;;;;5090874;28;20415;-83
2022/04/16 11:18:25;;;;;;;2.30;1.47;;;36.70;27.40;;;;;;5075339;28;21032;-84
2022/04/16 11:20:58;;;;;;;2.43;1.37;;;36.30;26.10;;;;;;5093955;28;20416;-83
2022/04/16 11:23:27;;;;;;;2.60;1.53;;;35.90;26.40;;;;;;5075206;28;20968;-83
2022/04/16 11:34:14;;;;;;;3.20;1.60;;;34.30;26.00;;;;;;5093479;28;20472;-81
2022/04/16 11:36:40;;;;;;;2.90;1.63;;;34.40;25.70;;;;;;5092713;28;20548;-80
2022/04/16 11:39:15;;;;;;;3.47;1.80;;;33.80;25.70;;;;;;5093898;28;20474;-79
2022/04/16 11:41:52;;;;;;;2.23;1.23;;;33.10;28.10;;;;;;5093913;28;20816;-79
2022/04/16 11:44:43;;;;;;;2.40;1.40;;;32.80;28.90;;;;;;5094431;28;20481;-79
2022/04/16 11:47:20;;;;;;;2.97;1.70;;;32.90;26.60;;;;;;5094049;28;20419;-80
2022/04/16 11:49:52;;;;;;;2.47;1.70;;;33.20;26.10;;;;;;5090688;28;20841;-79
2022/04/16 11:52:25;;;;;;;3.10;1.87;;;33.80;26.50;;;;;;5091392;28;20459;-80
2022/04/16 11:55:13;;;;;;;3.10;2.00;;;34.20;26.20;;;;;;5094298;28;20488;-79
2022/04/16 11:57:47;;;;;;;3.30;2.10;;;35.30;26.50;;;;;;5075467;28;21020;-79
2022/04/16 12:00:14;;;;;;;3.17;1.80;;;36.10;25.80;;;;;;5096791;28;20847;-79
2022/04/16 12:02:40;;;;;;;2.70;1.60;;;35.10;25.30;;;;;;5102299;28;20454;-79
2022/04/16 12:05:14;;;;;;;2.80;1.73;;;33.40;26.10;;;;;;5105622;28;20411;-80
2022/04/16 12:07:50;;;;;;;2.90;2.00;;;32.40;26.80;;;;;;5067877;28;20440;-79
2022/04/16 12:10:17;;;;;;;3.10;1.93;;;31.40;27.30;;;;;;5075598;28;20428;-79
2022/04/16 12:12:48;;;;;;;3.20;2.03;;;31.10;27.60;;;;;;5093322;28;20456;-78
2022/04/16 12:15:27;;;;;;;3.10;1.97;;;31.90;28.20;;;;;;5093053;28;20424;-79
2022/04/16 12:17:55;;;;;;;2.70;1.80;;;32.30;28.40;;;;;;5093123;28;20436;-78
2022/04/16 12:20:21;;;;;;;3.80;1.80;;;33.50;28.20;;;;;;5093499;28;20416;-79
2022/04/16 12:22:57;;;;;;;2.90;2.17;;;34.50;27.20;;;;;;5093197;28;20483;-79
2022/04/16 12:25:24;;;;;;;2.60;1.90;;;35.50;26.20;;;;;;5097381;28;20420;-79
2022/04/16 12:27:55;;;;;;;3.00;1.90;;;36.60;26.20;;;;;;5096708;28;20431;-79
2022/04/16 12:30:26;;;;;;;4.33;2.80;;;37.30;25.50;;;;;;5095825;28;20473;-84
2022/04/16 12:33:04;;;;;;;3.83;2.00;;;36.20;24.70;;;;;;5095782;28;20455;-82
2022/04/16 12:35:34;;;;;;;3.43;2.07;;;35.90;25.70;;;;;;5095019;28;20428;-84
2022/04/16 12:38:01;;;;;;;2.97;1.70;;;36.30;24.60;;;;;;5094589;28;20452;-83
2022/04/16 12:40:28;;;;;;;2.83;1.80;;;36.60;24.60;;;;;;5094079;28;20456;-83
2022/04/16 12:42:59;;;;;;;3.10;1.97;;;37.00;25.00;;;;;;5095044;28;20416;-84
2022/04/16 12:45:26;;;;;;;2.80;1.90;;;38.20;24.90;;;;;;5093473;28;20813;-84
2022/04/16 12:47:52;;;;;;;2.87;2.00;;;38.80;24.70;;;;;;5092939;28;20443;-84
2022/04/16 12:50:18;;;;;;;3.93;2.10;;;38.60;24.10;;;;;;5093493;28;20818;-82
2022/04/16 12:52:44;;;;;;;2.57;1.60;;;38.20;24.30;;;;;;5086796;28;20214;-83
2022/04/16 12:55:10;;;;;;;3.07;1.80;;;37.10;23.90;;;;;;5095302;28;20416;-83
2022/04/16 12:57:36;;;;;;;2.93;1.73;;;36.50;24.20;;;;;;5070669;28;20478;-83
2022/04/16 13:00:09;;;;;;;3.10;1.83;;;35.70;23.80;;;;;;5076761;28;20927;-83
2022/04/16 13:02:35;;;;;;;3.40;2.57;;;34.80;23.90;;;;;;5094039;28;20182;-83
2022/04/16 13:05:01;;;;;;;3.70;2.10;;;36.00;24.70;;;;;;5092880;28;20478;-83
2022/04/16 13:07:26;;;;;;;3.00;1.90;;;35.80;24.20;;;;;;5076052;28;20429;-83
2022/04/16 13:09:52;;;;;;;2.97;1.80;;;35.30;23.90;;;;;;5076991;28;20416;-83
2022/04/16 13:12:19;;;;;;;2.93;1.77;;;35.20;25.30;;;;;;5094954;28;20208;-83
2022/04/16 13:14:46;;;;;;;2.70;1.70;;;35.40;25.00;;;;;;5093855;28;20698;-83